createdAt,value
2023-04-02T00:01:48.605Z,60.95
2023-04-02T00:05:30.632Z,61.56
2023-04-02T00:08:44.032Z,61.10
2023-04-02T00:11:54.971Z,61.40
2023-04-02T00:14:58.204Z,61.77
2023-04-02T00:18:02.692Z,61.68
2023-04-02T00:21:12.564Z,61.63
2023-04-02T00:24:17.715Z,61.86
2023-04-02T00:27:19.599Z,61.99
2023-04-02T00:30:22.752Z,61.28
2023-04-02T00:33:28.958Z,61.16
2023-04-02T00:36:34.337Z,61.86
2023-04-02T00:39:41.595Z,61.53
2023-04-02T00:42:44.925Z,62.24
2023-04-02T00:45:51.226Z,62.61
2023-04-02T00:48:59.632Z,61.78
2023-04-02T00:52:04.701Z,62.69
2023-04-02T00:55:12.669Z,62.35
2023-04-02T00:58:23.218Z,63.09
2023-04-02T01:01:27.616Z,62.69
2023-04-02T01:04:34.669Z,63.30
2023-04-02T01:07:51.603Z,63.66
2023-04-02T01:11:03.943Z,63.77
2023-04-02T01:14:15.144Z,64.14
2023-04-02T01:17:28.443Z,63.89
2023-04-02T01:21:06.611Z,63.83
2023-04-02T01:24:12.380Z,63.87
2023-04-02T01:27:16.590Z,63.81
2023-04-02T01:30:21.316Z,64.01
2023-04-02T01:33:25.057Z,63.87
2023-04-02T01:36:36.965Z,64.15
2023-04-02T01:39:52.335Z,63.78
2023-04-02T01:43:04.322Z,63.51
2023-04-02T01:46:25.917Z,63.16
2023-04-02T01:49:28.616Z,63.44
2023-04-02T01:52:38.424Z,63.44
2023-04-02T01:55:43.332Z,63.84
2023-04-02T01:58:46.496Z,63.57
2023-04-02T02:01:57.258Z,62.97
2023-04-02T02:04:59.241Z,62.96
2023-04-02T02:08:02.921Z,62.88
2023-04-02T02:11:06.119Z,62.81
2023-04-02T02:14:15.038Z,63.49
2023-04-02T02:17:24.277Z,62.88
2023-04-02T02:20:28.261Z,62.96
2023-04-02T02:23:31.081Z,62.96
2023-04-02T02:26:36.063Z,63.25
2023-04-02T02:29:41.114Z,63.19
2023-04-02T02:32:54.542Z,63.42
2023-04-02T02:36:00.799Z,63.58
2023-04-02T02:39:11.038Z,63.52
2023-04-02T02:42:19.870Z,63.85
2023-04-02T02:45:25.641Z,63.94
2023-04-02T02:48:34.330Z,63.65
2023-04-02T02:51:44.068Z,63.48
2023-04-02T02:54:49.837Z,63.87
2023-04-02T02:57:55.722Z,63.85
2023-04-02T03:00:58.436Z,63.98
2023-04-02T03:04:03.310Z,64.06
2023-04-02T03:07:09.072Z,64.10
2023-04-02T03:10:14.930Z,63.91
2023-04-02T03:13:24.422Z,64.83
2023-04-02T03:16:31.387Z,63.88
2023-04-02T03:19:42.261Z,64.16
2023-04-02T03:22:50.780Z,64.73
2023-04-02T03:26:00.014Z,64.21
2023-04-02T03:29:08.501Z,64.22
2023-04-02T03:32:17.058Z,63.92
2023-04-02T03:35:27.559Z,64.43
2023-04-02T03:38:32.933Z,64.32
2023-04-02T03:41:45.057Z,63.54
2023-04-02T03:44:49.704Z,63.95
2023-04-02T03:47:56.232Z,64.20
2023-04-02T03:51:06.406Z,64.33
2023-04-02T03:54:13.903Z,64.05
2023-04-02T03:57:25.652Z,63.92
2023-04-02T04:00:35.439Z,63.68
2023-04-02T04:03:41.892Z,63.90
2023-04-02T04:06:49.400Z,63.76
2023-04-02T04:09:52.264Z,64.40
2023-04-02T04:12:57.578Z,63.96
2023-04-02T04:16:03.484Z,64.24
2023-04-02T04:19:10.994Z,63.87
2023-04-02T04:22:19.156Z,63.94
2023-04-02T04:25:29.780Z,64.26
2023-04-02T04:28:39.082Z,64.00
2023-04-02T04:31:47.573Z,63.83
2023-04-02T04:34:56.704Z,63.43
2023-04-02T04:38:05.302Z,64.16
2023-04-02T04:41:13.427Z,63.98
2023-04-02T04:44:20.609Z,63.92
2023-04-02T04:47:31.167Z,64.00
2023-04-02T04:50:37.848Z,64.03
2023-04-02T04:53:47.511Z,63.69
2023-04-02T04:56:54.798Z,63.24
2023-04-02T05:00:07.207Z,63.20
2023-04-02T05:03:17.692Z,63.22
2023-04-02T05:06:31.977Z,62.81
2023-04-02T05:09:40.477Z,62.47
2023-04-02T05:12:49.495Z,61.97
2023-04-02T05:16:02.237Z,62.37
2023-04-02T05:19:09.178Z,62.00
2023-04-02T05:22:24.357Z,61.30
2023-04-02T05:25:29.881Z,61.33
2023-04-02T05:28:38.688Z,61.15
2023-04-02T05:31:45.003Z,61.06
2023-04-02T05:34:52.891Z,60.88
2023-04-02T05:37:54.965Z,61.21
2023-04-02T05:41:04.043Z,60.48
2023-04-02T05:44:10.621Z,60.06
2023-04-02T05:47:14.846Z,60.04
2023-04-02T05:50:25.242Z,59.41
2023-04-02T05:53:32.172Z,59.73
2023-04-02T05:56:41.342Z,59.11
2023-04-02T05:59:47.438Z,60.00
2023-04-02T06:02:56.592Z,60.36
2023-04-02T06:06:04.325Z,58.82
2023-04-02T06:09:11.587Z,59.75
2023-04-02T06:12:27.930Z,59.75
2023-04-02T06:15:31.109Z,59.49
2023-04-02T06:18:35.788Z,59.36
2023-04-02T06:21:44.023Z,59.56
2023-04-02T06:24:50.575Z,58.40
2023-04-02T06:27:56.818Z,57.64
2023-04-02T06:31:03.203Z,57.64
2023-04-02T06:34:07.779Z,58.22
2023-04-02T06:37:21.357Z,56.81
2023-04-02T06:40:35.665Z,56.50
2023-04-02T06:43:44.741Z,57.91
2023-04-02T06:46:51.105Z,58.08
2023-04-02T06:50:00.793Z,58.67
2023-04-02T06:53:06.478Z,57.92
2023-04-02T06:56:13.292Z,57.90
2023-04-02T06:59:17.016Z,57.92
2023-04-02T07:02:29.167Z,56.99
2023-04-02T07:05:31.646Z,57.04
2023-04-02T07:08:34.253Z,57.25
2023-04-02T07:11:36.447Z,58.51
2023-04-02T07:14:39.691Z,57.94
2023-04-02T07:17:41.585Z,57.64
2023-04-02T07:20:43.490Z,57.22
2023-04-02T07:23:46.401Z,56.71
2023-04-02T07:26:48.361Z,57.13
2023-04-02T07:29:51.627Z,58.62
2023-04-02T07:32:54.264Z,57.57
2023-04-02T07:35:57.437Z,56.79
2023-04-02T07:39:00.182Z,57.35
2023-04-02T07:42:02.409Z,57.81
2023-04-02T07:45:06.853Z,57.64
2023-04-02T07:48:10.972Z,56.50
2023-04-02T07:51:18.634Z,57.28
2023-04-02T07:54:21.360Z,56.64
2023-04-02T07:57:23.295Z,57.36
2023-04-02T08:00:28.497Z,57.92
2023-04-02T08:03:30.466Z,61.46
2023-04-02T08:06:33.116Z,64.13
2023-04-02T08:09:34.900Z,64.70
2023-04-02T08:12:36.951Z,64.18
2023-04-02T08:15:40.732Z,64.30
2023-04-02T08:18:42.700Z,64.37
2023-04-02T08:21:45.664Z,64.53
2023-04-02T08:24:47.529Z,64.01
2023-04-02T08:27:50.646Z,63.47
2023-04-02T08:30:53.915Z,62.83
2023-04-02T08:33:57.065Z,61.42
2023-04-02T08:36:59.178Z,58.92
2023-04-02T08:40:01.973Z,58.37
2023-04-02T08:43:31.114Z,57.42
2023-04-02T08:46:43.816Z,57.08
2023-04-02T08:49:53.873Z,56.55
2023-04-02T08:52:57.044Z,56.24
2023-04-02T08:56:06.155Z,56.02
2023-04-02T08:59:18.460Z,55.71
2023-04-02T09:02:32.107Z,56.72
2023-04-02T09:05:39.870Z,59.82
2023-04-02T09:08:44.210Z,60.82
2023-04-02T09:11:52.698Z,61.52
2023-04-02T09:15:06.242Z,61.68
2023-04-02T09:18:15.636Z,61.77
2023-04-02T09:21:34.692Z,61.46
2023-04-02T09:24:37.884Z,61.74
2023-04-02T09:27:39.747Z,61.52
2023-04-02T09:30:57.291Z,60.54
2023-04-02T09:34:01.383Z,61.28
2023-04-02T09:37:08.443Z,60.88
2023-04-02T09:40:19.223Z,60.62
2023-04-02T09:43:22.717Z,61.38
2023-04-02T09:46:26.028Z,61.60
2023-04-02T09:49:32.630Z,61.84
2023-04-02T09:52:34.517Z,60.44
2023-04-02T09:55:37.266Z,61.11
2023-04-02T09:58:39.622Z,60.17
2023-04-02T10:01:43.892Z,61.21
2023-04-02T10:04:49.669Z,59.75
2023-04-02T10:07:55.570Z,60.53
2023-04-02T10:11:00.759Z,59.74
2023-04-02T10:14:06.229Z,59.93
2023-04-02T10:17:14.667Z,58.23
2023-04-02T10:20:23.035Z,58.09
2023-04-02T10:23:29.636Z,57.76
2023-04-02T10:26:55.626Z,57.78
2023-04-02T10:30:16.033Z,57.35
2023-04-02T10:33:22.225Z,56.81
2023-04-02T10:36:39.298Z,58.58
2023-04-02T10:39:44.335Z,57.48
2023-04-02T10:42:53.214Z,57.70
2023-04-02T10:45:59.437Z,56.07
2023-04-02T10:49:11.838Z,53.48
2023-04-02T10:52:21.280Z,52.97
2023-04-02T10:55:28.295Z,53.71
2023-04-02T10:58:34.499Z,52.08
2023-04-02T11:01:37.857Z,52.38
2023-04-02T11:04:45.469Z,52.41
2023-04-02T11:08:00.840Z,51.75
2023-04-02T11:11:10.764Z,51.96
2023-04-02T11:14:17.611Z,51.05
2023-04-02T11:17:20.216Z,52.21
2023-04-02T11:20:56.289Z,50.43
2023-04-02T11:24:01.211Z,51.16
2023-04-02T11:27:14.955Z,50.46
2023-04-02T11:30:23.147Z,49.35
2023-04-02T11:33:43.146Z,49.12
2023-04-02T11:37:06.678Z,51.16
2023-04-02T11:40:38.516Z,52.16
2023-04-02T11:43:50.860Z,50.85
2023-04-02T11:47:17.788Z,49.92
2023-04-02T11:50:30.836Z,49.31
2023-04-02T11:53:34.922Z,49.06
2023-04-02T11:56:46.650Z,48.68
2023-04-02T11:59:55.120Z,47.90
2023-04-02T12:03:16.282Z,47.71
2023-04-02T12:06:27.149Z,48.87
2023-04-02T12:09:32.326Z,48.97
2023-04-02T12:12:38.394Z,48.85
2023-04-02T12:15:46.571Z,50.42
2023-04-02T12:18:54.069Z,50.07
2023-04-02T12:21:56.634Z,51.25
2023-04-02T12:25:01.161Z,50.60
2023-04-02T12:28:14.607Z,50.29
2023-04-02T12:31:21.901Z,50.24
2023-04-02T12:34:26.604Z,49.41
2023-04-02T12:37:29.920Z,50.78
2023-04-02T12:40:32.425Z,50.39
2023-04-02T12:43:35.860Z,49.68
2023-04-02T12:46:40.042Z,49.35
2023-04-02T12:49:44.643Z,49.55
2023-04-02T12:52:50.136Z,49.73
2023-04-02T12:55:53.669Z,48.11
2023-04-02T12:58:57.280Z,48.28
2023-04-02T13:02:02.740Z,48.60
2023-04-02T13:05:04.530Z,47.08
2023-04-02T13:08:16.966Z,48.41
2023-04-02T13:11:19.545Z,48.20
2023-04-02T13:14:23.459Z,48.69
2023-04-02T13:17:42.496Z,48.18
2023-04-02T13:20:56.488Z,46.50
2023-04-02T13:23:59.611Z,46.46
2023-04-02T13:27:03.452Z,46.54
2023-04-02T13:30:10.390Z,46.74
2023-04-02T13:33:15.450Z,45.97
2023-04-02T13:36:17.351Z,44.94
2023-04-02T13:39:20.832Z,44.20
2023-04-02T13:42:22.879Z,43.58
2023-04-02T13:45:27.970Z,43.41
2023-04-02T13:48:31.625Z,44.24
2023-04-02T13:51:37.528Z,45.04
2023-04-02T13:54:44.045Z,44.63
2023-04-02T13:57:47.431Z,43.44
2023-04-02T14:00:51.183Z,44.81
2023-04-02T14:03:56.912Z,45.43
2023-04-02T14:07:21.830Z,45.61
2023-04-02T14:10:36.965Z,45.75
2023-04-02T14:14:19.086Z,44.81
2023-04-02T14:17:31.093Z,43.80
2023-04-02T14:20:45.835Z,44.62
2023-04-02T14:24:04.454Z,48.00
2023-04-02T14:27:18.638Z,50.78
2023-04-02T14:30:28.773Z,51.44
2023-04-02T14:33:39.012Z,51.97
2023-04-02T14:36:51.451Z,52.97
2023-04-02T14:40:04.402Z,52.03
2023-04-02T14:43:11.699Z,54.04
2023-04-02T14:46:14.915Z,55.94
2023-04-02T14:49:25.034Z,60.38
2023-04-02T14:52:35.356Z,70.34
2023-04-02T14:55:42.856Z,76.99
2023-04-02T14:58:51.266Z,80.49
2023-04-02T15:01:59.429Z,78.05
2023-04-02T15:05:05.878Z,80.75
2023-04-02T15:08:18.338Z,81.41
2023-04-02T15:11:26.595Z,81.90
2023-04-02T15:14:35.893Z,83.53
2023-04-02T15:17:38.837Z,83.83
2023-04-02T15:20:53.091Z,84.71
2023-04-02T15:24:06.301Z,84.92
2023-04-02T15:27:25.362Z,85.79
2023-04-02T15:30:35.710Z,86.14
2023-04-02T15:33:44.407Z,87.01
2023-04-02T15:37:01.929Z,86.41
2023-04-02T15:40:21.057Z,85.91
2023-04-02T15:43:29.697Z,86.33
2023-04-02T15:46:43.029Z,87.20
2023-04-02T15:49:55.321Z,85.92
2023-04-02T15:53:08.242Z,85.18
2023-04-02T15:56:25.210Z,85.95
2023-04-02T15:59:49.150Z,86.21
2023-04-02T16:03:24.092Z,86.51
2023-04-02T16:06:28.603Z,86.77
2023-04-02T16:09:44.637Z,84.23
2023-04-02T16:12:53.912Z,83.93
2023-04-02T16:16:04.724Z,82.56
2023-04-02T16:19:16.641Z,82.63
2023-04-02T16:22:26.639Z,78.71
2023-04-02T16:25:36.706Z,80.30
2023-04-02T16:28:49.673Z,78.31
2023-04-02T16:32:02.193Z,75.87
2023-04-02T16:38:44.149Z,78.66
2023-04-02T16:41:59.993Z,76.57
2023-04-02T16:45:19.582Z,74.89
2023-04-02T16:48:33.858Z,75.57
2023-04-02T16:51:44.856Z,80.17
2023-04-02T16:54:59.373Z,78.51
2023-04-02T16:58:18.517Z,73.32
2023-04-02T17:01:33.106Z,73.95
2023-04-02T17:04:57.246Z,74.46
2023-04-02T17:08:17.004Z,71.39
2023-04-02T17:11:25.160Z,71.73
2023-04-02T17:14:35.158Z,72.15
2023-04-02T17:17:42.256Z,71.05
2023-04-02T17:20:46.677Z,69.91
2023-04-02T17:23:56.295Z,68.73
2023-04-02T17:27:04.400Z,68.94
2023-04-02T17:30:17.061Z,69.38
2023-04-02T17:33:22.758Z,66.84
2023-04-02T17:36:33.787Z,67.17
2023-04-02T17:39:47.726Z,69.10
2023-04-02T17:42:58.917Z,66.71
2023-04-02T17:46:12.141Z,68.06
2023-04-02T17:49:28.505Z,66.24
2023-04-02T17:52:39.489Z,67.46
2023-04-02T17:55:54.247Z,66.39
2023-04-02T17:59:30.516Z,65.68
2023-04-02T18:02:46.790Z,65.68
2023-04-02T18:05:57.594Z,66.66
2023-04-02T18:09:19.845Z,65.08
2023-04-02T18:12:33.511Z,64.91
2023-04-02T18:15:46.205Z,64.47
2023-04-02T18:19:00.278Z,65.68
2023-04-02T18:22:14.072Z,65.12
2023-04-02T18:25:35.729Z,64.36
2023-04-02T18:28:54.025Z,64.51
2023-04-02T18:32:05.355Z,64.13
2023-04-02T18:35:21.960Z,65.68
2023-04-02T18:38:34.024Z,64.30
2023-04-02T18:41:50.793Z,64.73
2023-04-02T18:45:05.059Z,62.92
2023-04-02T18:48:26.924Z,63.21
2023-04-02T18:51:36.277Z,64.13
2023-04-02T18:54:47.334Z,64.39
2023-04-02T18:57:54.714Z,64.16
2023-04-02T19:00:59.694Z,65.37
2023-04-02T19:04:07.104Z,65.72
2023-04-02T19:07:15.037Z,63.82
2023-04-02T19:10:30.772Z,64.75
2023-04-02T19:13:34.844Z,64.19
2023-04-02T19:17:01.048Z,64.43
2023-04-02T19:20:17.964Z,64.64
2023-04-02T19:23:39.291Z,64.90
2023-04-02T19:26:51.406Z,64.45
2023-04-02T19:30:04.419Z,65.94
2023-04-02T19:33:20.062Z,65.51
2023-04-02T19:36:41.636Z,65.17
2023-04-02T19:40:05.543Z,65.17
2023-04-02T19:43:12.518Z,66.34
2023-04-02T19:46:16.411Z,64.61
2023-04-02T19:49:29.709Z,64.98
2023-04-02T19:52:34.836Z,64.73
2023-04-02T19:55:38.239Z,65.42
2023-04-02T19:58:42.995Z,63.76
2023-04-02T20:01:47.194Z,64.62
2023-04-02T20:04:53.794Z,61.68
2023-04-02T20:07:58.035Z,59.27
2023-04-02T20:11:01.547Z,58.58
2023-04-02T20:14:07.194Z,58.29
2023-04-02T20:17:09.927Z,59.16
2023-04-02T20:20:16.333Z,59.77
2023-04-02T20:23:20.694Z,61.50
2023-04-02T20:26:24.026Z,61.20
2023-04-02T20:29:30.977Z,61.58
2023-04-02T20:32:37.967Z,61.28
2023-04-02T20:35:41.914Z,60.93
2023-04-02T20:38:45.937Z,60.52
2023-04-02T20:41:48.660Z,61.28
2023-04-02T20:44:51.946Z,59.99
2023-04-02T20:47:53.916Z,60.80
2023-04-02T20:54:35.105Z,60.82
2023-04-02T20:57:37.230Z,59.86
2023-04-02T21:00:42.226Z,61.19
2023-04-02T21:03:44.339Z,60.04
2023-04-02T21:06:47.217Z,59.80
2023-04-02T21:09:49.148Z,60.18
2023-04-02T21:12:51.178Z,61.25
2023-04-02T21:15:54.771Z,61.09
2023-04-02T21:18:59.463Z,59.50
2023-04-02T21:22:01.477Z,60.60
2023-04-02T21:25:03.393Z,59.37
2023-04-02T21:28:06.489Z,59.29
2023-04-02T21:31:12.063Z,61.20
2023-04-02T21:34:15.756Z,60.34
2023-04-02T21:37:17.672Z,59.55
2023-04-02T21:40:19.989Z,59.50
2023-04-02T21:43:22.002Z,59.87
2023-04-02T21:46:27.177Z,59.43
2023-04-02T21:49:30.032Z,58.50
2023-04-02T21:52:32.507Z,60.09
2023-04-02T21:55:34.325Z,59.73
2023-04-02T21:58:37.032Z,59.54
2023-04-02T22:01:41.988Z,59.68
2023-04-02T22:04:43.991Z,59.69
2023-04-02T22:07:45.848Z,59.93
2023-04-02T22:10:47.682Z,58.91
2023-04-02T22:13:50.877Z,59.61
2023-04-02T22:16:54.307Z,58.23
2023-04-02T22:19:57.020Z,59.95
2023-04-02T22:22:58.850Z,61.64
2023-04-02T22:26:01.171Z,59.62
2023-04-02T22:29:03.483Z,59.27
2023-04-02T22:32:07.340Z,59.87
2023-04-02T22:35:09.806Z,59.12
2023-04-02T22:38:11.733Z,60.92
2023-04-02T22:41:16.368Z,58.57
2023-04-02T22:44:18.281Z,58.68
2023-04-02T22:47:22.251Z,59.47
2023-04-02T22:50:24.869Z,58.22
2023-04-02T22:53:26.731Z,58.63
2023-04-02T22:56:32.897Z,57.96
2023-04-02T22:59:34.730Z,58.34
2023-04-02T23:02:38.903Z,57.16
2023-04-02T23:05:42.534Z,57.82
2023-04-02T23:08:44.953Z,57.56
2023-04-02T23:11:46.813Z,58.01
2023-04-02T23:14:48.812Z,58.57
2023-04-02T23:17:52.053Z,57.33
2023-04-02T23:20:54.997Z,58.53
2023-04-02T23:23:57.017Z,57.70
2023-04-02T23:26:59.777Z,57.56
2023-04-02T23:30:01.621Z,58.45
2023-04-02T23:33:04.925Z,58.08
2023-04-02T23:36:09.578Z,59.91
2023-04-02T23:39:13.001Z,57.62
2023-04-02T23:42:16.061Z,58.48
2023-04-02T23:45:17.962Z,57.54
2023-04-02T23:48:22.103Z,57.43
2023-04-02T23:51:24.868Z,58.44
2023-04-02T23:54:28.149Z,57.93
2023-04-02T23:57:30.066Z,57.87
